createdAt,value
2022-10-14T00:01:23.310Z,8.67
2022-10-14T00:04:03.146Z,8.71
2022-10-14T00:06:32.508Z,8.67
2022-10-14T00:09:03.835Z,8.64
2022-10-14T00:11:32.906Z,8.73
2022-10-14T00:14:05.208Z,8.68
2022-10-14T00:16:37.825Z,8.71
2022-10-14T00:19:06.229Z,8.65
2022-10-14T00:21:35.100Z,8.59
2022-10-14T00:24:02.363Z,8.58
2022-10-14T00:26:33.347Z,8.46
2022-10-14T00:29:02.106Z,8.40
2022-10-14T00:31:33.037Z,8.33
2022-10-14T00:34:01.023Z,8.35
2022-10-14T00:36:28.180Z,8.44
2022-10-14T00:38:56.563Z,8.54
2022-10-14T00:41:27.900Z,8.55
2022-10-14T00:44:01.146Z,8.56
2022-10-14T00:46:35.114Z,8.42
2022-10-14T00:49:11.820Z,8.48
2022-10-14T00:51:41.280Z,8.50
2022-10-14T00:54:09.846Z,8.53
2022-10-14T00:56:37.555Z,8.56
2022-10-14T00:59:09.528Z,8.58
2022-10-14T01:01:36.912Z,8.70
2022-10-14T01:04:05.021Z,8.76
2022-10-14T01:06:48.202Z,8.68
2022-10-14T01:09:54.470Z,8.65
2022-10-14T01:12:50.285Z,8.38
2022-10-14T01:15:26.396Z,8.28
2022-10-14T01:18:24.367Z,8.49
2022-10-14T01:21:22.488Z,8.42
2022-10-14T01:24:18.408Z,8.30
2022-10-14T01:27:10.202Z,8.09
2022-10-14T01:30:01.351Z,7.90
2022-10-14T01:32:50.855Z,7.88
2022-10-14T01:35:31.266Z,7.68
2022-10-14T01:38:03.573Z,7.64
2022-10-14T01:40:50.299Z,7.58
2022-10-14T01:43:22.990Z,7.62
2022-10-14T01:45:52.137Z,7.47
2022-10-14T01:48:24.852Z,7.43
2022-10-14T01:50:54.930Z,7.31
2022-10-14T01:53:26.258Z,7.21
2022-10-14T01:55:55.799Z,7.24
2022-10-14T01:58:27.247Z,7.27
2022-10-14T02:00:54.947Z,7.17
2022-10-14T02:03:22.090Z,7.10
2022-10-14T02:06:07.547Z,7.21
2022-10-14T02:09:00.954Z,6.98
2022-10-14T02:11:37.965Z,7.13
2022-10-14T02:14:23.974Z,7.08
2022-10-14T02:17:06.539Z,6.97
2022-10-14T02:19:44.147Z,6.93
2022-10-14T02:22:11.292Z,6.91
2022-10-14T02:24:54.221Z,6.98
2022-10-14T02:27:25.337Z,6.90
2022-10-14T02:29:57.495Z,6.97
2022-10-14T02:32:26.279Z,7.04
2022-10-14T02:34:57.666Z,6.93
2022-10-14T02:37:26.616Z,6.97
2022-10-14T02:40:08.875Z,7.00
2022-10-14T02:42:36.407Z,6.99
2022-10-14T02:45:06.608Z,6.89
2022-10-14T02:47:33.965Z,6.91
2022-10-14T02:50:01.377Z,7.00
2022-10-14T02:52:30.116Z,7.05
2022-10-14T02:54:58.306Z,6.97
2022-10-14T02:57:25.949Z,6.90
2022-10-14T02:59:53.106Z,6.94
2022-10-14T03:02:20.620Z,6.82
2022-10-14T03:04:48.450Z,6.92
2022-10-14T03:07:15.577Z,7.09
2022-10-14T03:09:46.726Z,7.05
2022-10-14T03:12:13.910Z,6.94
2022-10-14T03:14:41.676Z,6.90
2022-10-14T03:17:12.124Z,6.90
2022-10-14T03:19:40.397Z,6.86
2022-10-14T03:22:08.615Z,6.94
2022-10-14T03:24:37.690Z,6.94
2022-10-14T03:27:21.817Z,6.96
2022-10-14T03:29:53.403Z,7.11
2022-10-14T03:32:24.415Z,7.20
2022-10-14T03:35:14.079Z,7.14
2022-10-14T03:37:44.385Z,7.09
2022-10-14T03:40:12.844Z,6.89
2022-10-14T03:42:42.863Z,7.03
2022-10-14T03:45:10.870Z,6.94
2022-10-14T03:47:40.434Z,6.99
2022-10-14T03:50:08.165Z,6.90
2022-10-14T03:52:47.453Z,6.89
2022-10-14T03:55:26.470Z,6.89
2022-10-14T03:57:54.103Z,6.76
2022-10-14T04:00:21.713Z,6.79
2022-10-14T04:02:58.708Z,6.71
2022-10-14T04:05:39.723Z,6.72
2022-10-14T04:08:17.669Z,6.66
2022-10-14T04:10:56.455Z,6.57
2022-10-14T04:13:25.366Z,6.57
2022-10-14T04:15:53.032Z,6.64
2022-10-14T04:18:35.131Z,6.64
2022-10-14T04:21:08.348Z,6.63
2022-10-14T04:23:36.964Z,6.59
2022-10-14T04:26:12.503Z,6.61
2022-10-14T04:28:40.353Z,6.60
2022-10-14T04:31:13.632Z,6.51
2022-10-14T04:33:55.890Z,6.46
2022-10-14T04:36:30.174Z,6.52
2022-10-14T04:38:59.919Z,6.55
2022-10-14T04:41:27.805Z,6.69
2022-10-14T04:43:57.634Z,6.77
2022-10-14T04:46:33.056Z,6.70
2022-10-14T04:49:01.074Z,6.48
2022-10-14T04:51:32.908Z,6.61
2022-10-14T04:54:10.520Z,6.87
2022-10-14T04:56:57.945Z,6.52
2022-10-14T04:59:25.282Z,6.40
2022-10-14T05:02:12.825Z,6.45
2022-10-14T05:04:50.381Z,6.42
2022-10-14T05:07:18.076Z,6.34
2022-10-14T05:09:54.189Z,6.32
2022-10-14T05:12:34.831Z,6.31
2022-10-14T05:15:05.427Z,6.29
2022-10-14T05:17:45.852Z,6.40
2022-10-14T05:20:16.636Z,6.49
2022-10-14T05:22:47.558Z,6.44
2022-10-14T05:25:14.868Z,6.46
2022-10-14T05:27:42.417Z,6.59
2022-10-14T05:30:10.804Z,6.65
2022-10-14T05:32:44.004Z,6.77
2022-10-14T05:35:11.340Z,7.02
2022-10-14T05:37:41.011Z,6.98
2022-10-14T05:40:09.404Z,6.97
2022-10-14T05:42:37.547Z,7.12
2022-10-14T05:45:06.131Z,6.88
2022-10-14T05:47:36.895Z,7.00
2022-10-14T05:50:13.458Z,6.88
2022-10-14T05:52:44.201Z,6.51
2022-10-14T05:55:17.610Z,6.60
2022-10-14T05:57:46.423Z,6.53
2022-10-14T06:00:23.299Z,6.54
2022-10-14T06:02:59.166Z,6.75
2022-10-14T06:05:27.364Z,6.96
2022-10-14T06:07:54.598Z,7.27
2022-10-14T06:10:22.800Z,7.50
2022-10-14T06:12:50.036Z,7.80
2022-10-14T06:15:17.462Z,7.50
2022-10-14T06:17:44.877Z,8.08
2022-10-14T06:20:12.063Z,8.07
2022-10-14T06:22:39.192Z,8.10
2022-10-14T06:25:06.976Z,8.20
2022-10-14T06:27:34.244Z,7.57
2022-10-14T06:30:01.607Z,8.35
2022-10-14T06:32:29.059Z,9.17
2022-10-14T06:34:56.272Z,10.20
2022-10-14T06:37:23.882Z,11.23
2022-10-14T06:39:51.250Z,12.13
2022-10-14T06:42:18.489Z,13.29
2022-10-14T06:44:45.776Z,13.79
2022-10-14T06:47:13.187Z,15.47
2022-10-14T06:49:40.349Z,16.32
2022-10-14T06:52:07.637Z,17.60
2022-10-14T06:54:38.998Z,17.23
2022-10-14T06:57:06.991Z,18.24
2022-10-14T06:59:34.254Z,17.03
2022-10-14T07:02:01.667Z,17.30
2022-10-14T07:04:28.872Z,17.24
2022-10-14T07:06:57.857Z,16.65
2022-10-14T07:09:25.237Z,17.43
2022-10-14T07:11:52.462Z,16.51
2022-10-14T07:14:19.797Z,17.10
2022-10-14T07:16:47.222Z,19.00
2022-10-14T07:19:14.501Z,19.94
2022-10-14T07:21:42.967Z,21.16
2022-10-14T07:24:10.415Z,20.03
2022-10-14T07:26:37.653Z,19.26
2022-10-14T07:29:05.751Z,19.63
2022-10-14T07:31:33.229Z,20.75
2022-10-14T07:34:01.743Z,22.50
2022-10-14T07:36:28.925Z,22.23
2022-10-14T07:38:56.568Z,22.40
2022-10-14T07:41:25.347Z,22.76
2022-10-14T07:44:01.951Z,22.50
2022-10-14T07:46:32.339Z,23.51
2022-10-14T07:49:13.731Z,22.19
2022-10-14T07:51:42.300Z,22.93
2022-10-14T07:54:14.984Z,22.59
2022-10-14T07:56:43.334Z,23.57
2022-10-14T07:59:10.780Z,23.08
2022-10-14T08:01:38.673Z,21.62
2022-10-14T08:04:06.032Z,22.35
2022-10-14T08:06:33.449Z,22.91
2022-10-14T08:09:00.652Z,22.59
2022-10-14T08:11:29.098Z,19.78
2022-10-14T08:13:58.165Z,18.74
2022-10-14T08:16:27.857Z,19.45
2022-10-14T08:19:00.537Z,20.56
2022-10-14T08:21:28.706Z,21.34
2022-10-14T08:23:56.165Z,22.82
2022-10-14T08:26:35.286Z,21.84
2022-10-14T08:29:06.057Z,22.34
2022-10-14T08:31:34.228Z,20.89
2022-10-14T08:34:01.858Z,22.25
2022-10-14T08:36:29.449Z,23.17
2022-10-14T08:38:56.878Z,23.76
2022-10-14T08:41:46.937Z,22.42
2022-10-14T08:44:17.638Z,21.27
2022-10-14T08:46:54.438Z,22.38
2022-10-14T08:49:29.917Z,22.25
2022-10-14T08:52:04.959Z,22.26
2022-10-14T08:54:37.673Z,20.96
2022-10-14T08:57:12.691Z,21.75
2022-10-14T08:59:41.786Z,19.66
2022-10-14T09:02:42.712Z,19.91
2022-10-14T09:05:22.066Z,18.83
2022-10-14T09:07:52.411Z,16.91
2022-10-14T09:10:36.311Z,17.43
2022-10-14T09:13:18.916Z,17.11
2022-10-14T09:15:50.473Z,17.15
2022-10-14T09:18:27.019Z,18.16
2022-10-14T09:20:56.423Z,19.10
2022-10-14T09:23:27.842Z,19.72
2022-10-14T09:26:04.289Z,20.22
2022-10-14T09:28:44.541Z,19.92
2022-10-14T09:31:14.029Z,19.65
2022-10-14T09:33:43.091Z,20.33
2022-10-14T09:36:17.671Z,19.54
2022-10-14T09:38:48.021Z,20.97
2022-10-14T09:41:16.344Z,20.19
2022-10-14T09:44:23.217Z,21.25
2022-10-14T09:46:55.283Z,21.70
2022-10-14T09:49:42.509Z,21.14
2022-10-14T09:52:22.410Z,20.91
2022-10-14T09:54:55.362Z,19.30
2022-10-14T09:57:24.562Z,18.83
2022-10-14T09:59:57.563Z,18.26
2022-10-14T10:02:33.892Z,19.61
2022-10-14T10:05:23.098Z,18.92
2022-10-14T10:08:02.257Z,19.21
2022-10-14T10:10:31.196Z,20.04
2022-10-14T10:12:58.891Z,20.04
2022-10-14T10:15:26.392Z,21.31
2022-10-14T10:17:53.767Z,18.62
2022-10-14T10:20:33.222Z,17.66
2022-10-14T10:23:19.822Z,19.23
2022-10-14T10:25:48.287Z,18.96
2022-10-14T10:28:27.169Z,19.15
2022-10-14T10:31:19.704Z,18.38
2022-10-14T10:34:02.429Z,17.30
2022-10-14T10:36:42.591Z,17.46
2022-10-14T10:39:12.613Z,16.72
2022-10-14T10:41:53.591Z,16.29
2022-10-14T10:44:52.855Z,16.42
2022-10-14T10:47:31.486Z,15.68
2022-10-14T10:50:40.214Z,15.09
2022-10-14T10:53:19.647Z,15.43
2022-10-14T10:55:59.882Z,14.58
2022-10-14T10:58:40.968Z,14.68
2022-10-14T11:01:33.513Z,15.18
2022-10-14T11:04:19.373Z,15.67
2022-10-14T11:07:27.774Z,15.44
2022-10-14T11:10:29.527Z,15.11
2022-10-14T11:13:35.456Z,15.16
2022-10-14T11:16:07.868Z,14.41
2022-10-14T11:18:47.592Z,14.79
2022-10-14T11:21:15.001Z,14.46
2022-10-14T11:23:57.206Z,13.97
2022-10-14T11:26:46.620Z,14.13
2022-10-14T11:29:23.176Z,14.17
2022-10-14T11:32:12.247Z,14.66
2022-10-14T11:35:02.024Z,14.46
2022-10-14T11:37:46.509Z,14.67
2022-10-14T11:40:13.581Z,15.13
2022-10-14T11:43:02.423Z,14.81
2022-10-14T11:45:41.675Z,14.13
2022-10-14T11:48:30.152Z,14.26
2022-10-14T11:51:26.002Z,14.59
2022-10-14T11:54:04.158Z,14.25
2022-10-14T11:56:46.334Z,14.37
2022-10-14T11:59:19.845Z,14.59
2022-10-14T12:01:52.210Z,14.54
2022-10-14T12:04:28.016Z,14.27
2022-10-14T12:07:06.948Z,14.60
2022-10-14T12:09:44.878Z,14.36
2022-10-14T12:12:15.338Z,14.40
2022-10-14T12:14:50.191Z,14.16
2022-10-14T12:17:43.556Z,14.53
2022-10-14T12:20:30.725Z,14.81
2022-10-14T12:22:59.668Z,15.04
2022-10-14T12:25:30.610Z,15.01
2022-10-14T12:27:58.279Z,15.26
2022-10-14T12:30:33.961Z,14.78
2022-10-14T12:33:05.058Z,14.76
2022-10-14T12:35:46.384Z,14.86
2022-10-14T12:38:18.650Z,14.97
2022-10-14T12:40:48.448Z,14.87
2022-10-14T12:43:20.596Z,15.31
2022-10-14T12:45:59.329Z,14.86
2022-10-14T12:48:30.035Z,15.33
2022-10-14T12:51:16.634Z,15.35
2022-10-14T12:54:05.444Z,15.64
2022-10-14T12:57:01.198Z,15.48
2022-10-14T12:59:36.509Z,15.25
2022-10-14T13:02:26.396Z,15.34
2022-10-14T13:04:55.244Z,15.26
2022-10-14T13:07:39.824Z,15.35
2022-10-14T13:10:27.855Z,15.64
2022-10-14T13:12:55.281Z,15.04
2022-10-14T13:15:57.932Z,15.13
2022-10-14T13:18:28.295Z,15.38
2022-10-14T13:20:55.419Z,15.58
2022-10-14T13:23:37.937Z,15.09
2022-10-14T13:26:28.471Z,14.99
2022-10-14T13:29:20.116Z,15.41
2022-10-14T13:32:02.370Z,15.46
2022-10-14T13:34:51.322Z,15.30
2022-10-14T13:37:32.267Z,15.15
2022-10-14T13:40:27.247Z,14.89
2022-10-14T13:43:02.156Z,15.01
2022-10-14T13:45:37.043Z,14.82
2022-10-14T13:48:14.737Z,14.65
2022-10-14T13:50:42.910Z,14.66
2022-10-14T13:53:22.802Z,14.65
2022-10-14T13:55:54.830Z,14.81
2022-10-14T13:58:24.300Z,14.74
2022-10-14T14:00:58.083Z,14.69
2022-10-14T14:03:36.161Z,14.81
2022-10-14T14:06:14.335Z,14.71
2022-10-14T14:09:08.057Z,14.76
2022-10-14T14:11:37.674Z,14.92
2022-10-14T14:14:17.463Z,14.91
2022-10-14T14:17:07.920Z,14.64
2022-10-14T14:19:37.788Z,14.39
2022-10-14T14:22:18.753Z,14.62
2022-10-14T14:24:48.144Z,14.43
2022-10-14T14:27:21.589Z,14.57
2022-10-14T14:29:51.682Z,14.59
2022-10-14T14:32:23.036Z,14.50
2022-10-14T14:34:51.265Z,14.41
2022-10-14T14:37:54.677Z,14.44
2022-10-14T14:40:21.522Z,14.12
2022-10-14T14:42:52.473Z,14.22
2022-10-14T14:45:25.969Z,14.11
2022-10-14T14:48:04.300Z,13.99
2022-10-14T14:50:36.893Z,13.95
2022-10-14T14:53:10.967Z,13.82
2022-10-14T14:56:02.445Z,13.85
2022-10-14T14:58:43.020Z,13.80
2022-10-14T15:01:24.915Z,13.96
2022-10-14T15:04:12.396Z,13.75
2022-10-14T15:06:39.743Z,13.75
2022-10-14T15:09:24.062Z,13.66
2022-10-14T15:11:58.037Z,13.57
2022-10-14T15:14:40.814Z,13.54
2022-10-14T15:17:27.176Z,13.45
2022-10-14T15:20:20.106Z,13.38
2022-10-14T15:22:49.244Z,13.23
2022-10-14T15:25:21.575Z,13.05
2022-10-14T15:28:02.717Z,13.05
2022-10-14T15:30:40.166Z,12.91
2022-10-14T15:33:22.073Z,12.83
2022-10-14T15:35:59.676Z,12.88
2022-10-14T15:38:27.875Z,12.78
2022-10-14T15:40:55.791Z,12.74
2022-10-14T15:43:25.919Z,12.95
2022-10-14T15:46:16.453Z,12.74
2022-10-14T15:48:52.527Z,12.54
2022-10-14T15:51:23.656Z,12.60
2022-10-14T15:53:52.005Z,12.48
2022-10-14T15:56:21.250Z,12.32
2022-10-14T15:58:49.351Z,12.40
2022-10-14T16:01:20.668Z,12.31
2022-10-14T16:03:55.433Z,12.35
2022-10-14T16:06:24.224Z,12.22
2022-10-14T16:08:51.813Z,12.15
2022-10-14T16:11:25.553Z,12.21
2022-10-14T16:13:53.599Z,12.18
2022-10-14T16:16:44.648Z,12.01
2022-10-14T16:19:12.520Z,11.96
2022-10-14T16:21:40.443Z,11.94
2022-10-14T16:24:14.889Z,11.93
2022-10-14T16:26:42.391Z,11.90
2022-10-14T16:29:11.664Z,11.90
2022-10-14T16:31:39.024Z,11.93
2022-10-14T16:34:06.175Z,11.73
2022-10-14T16:36:33.333Z,11.60
2022-10-14T16:39:06.534Z,11.60
2022-10-14T16:41:33.759Z,11.77
2022-10-14T16:44:00.934Z,11.81
2022-10-14T16:46:46.949Z,11.96
2022-10-14T16:49:14.421Z,12.00
2022-10-14T16:51:43.086Z,11.86
2022-10-14T16:54:11.089Z,11.79
2022-10-14T16:56:53.552Z,11.78
2022-10-14T16:59:22.073Z,11.84
2022-10-14T17:01:49.679Z,11.67
2022-10-14T17:04:20.144Z,11.69
2022-10-14T17:06:52.217Z,11.63
2022-10-14T17:09:19.747Z,11.63
2022-10-14T17:11:47.714Z,11.69
2022-10-14T17:14:18.269Z,11.71
2022-10-14T17:16:47.112Z,11.71
2022-10-14T17:19:15.576Z,11.70
2022-10-14T17:21:42.929Z,11.64
2022-10-14T17:24:10.333Z,11.72
2022-10-14T17:26:37.518Z,11.72
2022-10-14T17:29:04.947Z,11.68
2022-10-14T17:31:32.288Z,11.60
2022-10-14T17:33:59.902Z,11.58
2022-10-14T17:36:29.024Z,11.62
2022-10-14T17:38:57.648Z,11.55
2022-10-14T17:41:26.732Z,11.60
2022-10-14T17:43:56.449Z,11.56
2022-10-14T17:46:25.881Z,11.53
2022-10-14T17:48:56.253Z,11.56
2022-10-14T17:51:25.578Z,11.39
2022-10-14T17:53:58.528Z,11.44
2022-10-14T17:56:30.140Z,11.40
2022-10-14T17:59:00.096Z,11.28
2022-10-14T18:01:37.049Z,11.39
2022-10-14T18:04:11.325Z,11.39
2022-10-14T18:06:39.045Z,11.24
2022-10-14T18:09:09.050Z,11.19
2022-10-14T18:12:12.797Z,11.28
2022-10-14T18:14:30.610Z,11.45
2022-10-14T18:16:59.390Z,11.36
2022-10-14T18:19:27.219Z,11.32
2022-10-14T18:21:54.545Z,11.24
2022-10-14T18:24:21.819Z,11.57
2022-10-14T18:26:53.406Z,11.54
2022-10-14T18:29:20.810Z,11.25
2022-10-14T18:31:50.052Z,11.26
2022-10-14T18:34:17.792Z,11.18
2022-10-14T18:36:45.099Z,11.29
2022-10-14T18:39:12.451Z,11.45
2022-10-14T18:41:40.006Z,11.56
2022-10-14T18:44:07.947Z,11.55
2022-10-14T18:46:37.400Z,11.47
2022-10-14T18:49:07.419Z,11.26
2022-10-14T18:51:37.366Z,11.18
2022-10-14T18:54:11.075Z,11.20
2022-10-14T18:56:38.954Z,11.20
2022-10-14T18:59:12.590Z,11.15
2022-10-14T19:01:40.406Z,11.03
2022-10-14T19:04:09.635Z,11.04
2022-10-14T19:06:37.066Z,11.07
2022-10-14T19:09:05.524Z,11.00
2022-10-14T19:11:34.530Z,11.05
2022-10-14T19:14:03.860Z,11.02
2022-10-14T19:16:33.713Z,11.02
2022-10-14T19:19:20.399Z,11.04
2022-10-14T19:21:54.445Z,10.96
2022-10-14T19:24:22.244Z,10.97
2022-10-14T19:26:50.255Z,11.14
2022-10-14T19:29:17.936Z,11.08
2022-10-14T19:31:45.337Z,11.04
2022-10-14T19:34:15.577Z,11.09
2022-10-14T19:36:44.241Z,11.07
2022-10-14T19:39:14.431Z,11.12
2022-10-14T19:41:46.568Z,10.98
2022-10-14T19:44:15.859Z,11.03
2022-10-14T19:46:45.018Z,10.95
2022-10-14T19:49:14.038Z,11.01
2022-10-14T19:51:42.144Z,10.96
2022-10-14T19:54:12.083Z,10.96
2022-10-14T19:56:39.705Z,10.90
2022-10-14T19:59:07.253Z,10.95
2022-10-14T20:01:34.809Z,10.82
2022-10-14T20:04:02.631Z,10.96
2022-10-14T20:06:35.849Z,10.87
2022-10-14T20:09:04.178Z,10.88
2022-10-14T20:11:31.967Z,10.70
2022-10-14T20:13:59.464Z,10.80
2022-10-14T20:16:27.363Z,10.90
2022-10-14T20:18:56.075Z,10.70
2022-10-14T20:21:23.778Z,10.66
2022-10-14T20:23:51.217Z,10.71
2022-10-14T20:26:21.316Z,10.75
2022-10-14T20:28:49.427Z,10.61
2022-10-14T20:31:20.039Z,10.65
2022-10-14T20:33:47.406Z,10.56
2022-10-14T20:36:17.596Z,10.66
2022-10-14T20:38:45.707Z,10.64
2022-10-14T20:41:15.915Z,10.51
2022-10-14T20:43:44.127Z,10.57
2022-10-14T20:46:11.938Z,10.67
2022-10-14T20:48:39.537Z,10.59
2022-10-14T20:51:08.758Z,10.61
2022-10-14T20:53:36.595Z,10.56
2022-10-14T20:56:07.027Z,10.41
2022-10-14T20:58:34.602Z,10.30
2022-10-14T21:01:09.261Z,10.30
2022-10-14T21:03:36.537Z,10.26
2022-10-14T21:06:05.983Z,10.34
2022-10-14T21:08:33.766Z,10.29
2022-10-14T21:11:02.347Z,10.34
2022-10-14T21:13:30.511Z,10.35
2022-10-14T21:15:57.999Z,10.34
2022-10-14T21:18:25.417Z,10.28
2022-10-14T21:23:25.287Z,10.11
2022-10-14T21:25:57.541Z,10.29
2022-10-14T21:28:24.949Z,10.25
2022-10-14T21:30:52.172Z,10.22
2022-10-14T21:33:19.422Z,9.97
2022-10-14T21:35:46.751Z,9.98
2022-10-14T21:38:13.901Z,10.05
2022-10-14T21:40:41.126Z,10.14
2022-10-14T21:43:08.531Z,10.27
2022-10-14T21:45:35.820Z,10.20
2022-10-14T21:48:03.175Z,10.26
2022-10-14T21:50:30.532Z,10.25
2022-10-14T21:52:58.082Z,10.33
2022-10-14T21:55:25.308Z,10.19
2022-10-14T21:57:52.713Z,10.24
2022-10-14T22:00:20.901Z,10.11
2022-10-14T22:02:52.131Z,10.29
2022-10-14T22:05:20.058Z,10.31
2022-10-14T22:07:48.012Z,10.17
2022-10-14T22:10:33.612Z,9.98
2022-10-14T22:13:01.439Z,10.02
2022-10-14T22:15:28.655Z,9.95
2022-10-14T22:17:55.865Z,9.69
2022-10-14T22:20:23.317Z,9.81
2022-10-14T22:22:50.674Z,9.88
2022-10-14T22:25:17.817Z,9.95
2022-10-14T22:27:45.167Z,10.05
2022-10-14T22:30:12.964Z,10.03
2022-10-14T22:32:40.135Z,10.01
2022-10-14T22:35:08.135Z,9.99
2022-10-14T22:37:35.350Z,10.01
2022-10-14T22:40:02.579Z,10.02
2022-10-14T22:42:30.284Z,10.06
2022-10-14T22:44:57.463Z,9.94
2022-10-14T22:47:25.030Z,9.84
2022-10-14T22:49:52.638Z,10.02
2022-10-14T22:52:19.939Z,9.85
2022-10-14T22:54:48.296Z,9.87
2022-10-14T22:57:15.719Z,9.93
2022-10-14T22:59:42.950Z,9.85
2022-10-14T23:02:10.157Z,9.79
2022-10-14T23:04:37.484Z,9.72
2022-10-14T23:07:06.893Z,9.87
2022-10-14T23:12:02.653Z,10.16
2022-10-14T23:14:31.025Z,10.28
2022-10-14T23:16:58.190Z,10.06
2022-10-14T23:19:25.628Z,10.06
2022-10-14T23:21:52.907Z,9.95
2022-10-14T23:24:20.033Z,9.96
2022-10-14T23:26:47.403Z,9.93
2022-10-14T23:29:14.656Z,9.86
2022-10-14T23:31:41.842Z,9.77
2022-10-14T23:34:13.719Z,9.76
2022-10-14T23:36:41.571Z,9.85
2022-10-14T23:39:09.251Z,9.95
2022-10-14T23:41:36.630Z,9.97
2022-10-14T23:44:03.832Z,10.01
2022-10-14T23:46:30.963Z,10.11
2022-10-14T23:49:07.270Z,9.99
2022-10-14T23:51:42.191Z,9.91
2022-10-14T23:54:09.674Z,9.93
2022-10-14T23:56:36.850Z,10.02
2022-10-14T23:59:04.032Z,9.88
